Brea, California
Current Conditions -  °F | °C
As of 4:53 PM on Thursday 27 Nov 2014 (Local Time) from KFUL Reporting Station
Clear Clear  
Wind Chill: 77°   Ceiling: Unl
Heat Index: 77°   Visibility: 10mi
Dew Point: 31°   Wind: 0mph
Humidity: 19%   Direction: NA
Pressure: 29.99"   Gusts: NA
Location:  33.92°N, 117.88°W
Report Text: KFUL 280053Z 00000KT 10SM CLR 25/M01 A2999 RMK AO2 SLP154 T02501006
Loading
Personal Weather Stations






























Interactive Weather Map New forecast layout! Learn more

10-Day Weather Forecast

Advertisements
Track Severe Weather on mobile